createdAt,value
2023-04-18T00:01:22.944Z,7.05
2023-04-18T00:04:08.818Z,6.87
2023-04-18T00:06:53.903Z,6.50
2023-04-18T00:09:38.749Z,6.97
2023-04-18T00:12:23.738Z,6.80
2023-04-18T00:15:09.565Z,7.28
2023-04-18T00:17:56.592Z,6.87
2023-04-18T00:20:41.390Z,6.65
2023-04-18T00:23:28.221Z,6.88
2023-04-18T00:26:13.279Z,6.85
2023-04-18T00:28:58.457Z,7.30
2023-04-18T00:31:43.269Z,6.60
2023-04-18T00:34:27.997Z,6.43
2023-04-18T00:37:12.966Z,6.65
2023-04-18T00:39:57.742Z,6.80
2023-04-18T00:42:42.697Z,6.80
2023-04-18T00:45:27.426Z,6.77
2023-04-18T00:48:12.612Z,6.60
2023-04-18T00:50:57.855Z,6.35
2023-04-18T00:53:44.218Z,6.90
2023-04-18T00:56:29.745Z,6.63
2023-04-18T00:59:15.286Z,7.10
2023-04-18T01:02:00.491Z,7.00
2023-04-18T01:04:46.105Z,6.90
2023-04-18T01:07:33.287Z,7.18
2023-04-18T01:10:18.549Z,6.75
2023-04-18T01:13:11.620Z,6.33
2023-04-18T01:15:56.494Z,6.68
2023-04-18T01:18:41.427Z,6.35
2023-04-18T01:21:26.757Z,6.43
2023-04-18T01:24:17.065Z,6.07
2023-04-18T01:27:05.762Z,6.00
2023-04-18T01:29:50.526Z,6.35
2023-04-18T01:32:35.479Z,6.43
2023-04-18T01:35:20.715Z,6.10
2023-04-18T01:38:05.548Z,5.90
2023-04-18T01:40:50.759Z,6.27
2023-04-18T01:43:35.691Z,6.70
2023-04-18T01:46:20.810Z,6.28
2023-04-18T01:49:05.808Z,6.40
2023-04-18T01:51:50.669Z,6.25
2023-04-18T01:54:35.296Z,6.00
2023-04-18T01:57:20.477Z,6.50
2023-04-18T02:00:06.600Z,6.03
2023-04-18T02:02:51.500Z,6.60
2023-04-18T02:05:37.404Z,6.10
2023-04-18T02:08:22.431Z,6.07
2023-04-18T02:11:07.246Z,6.45
2023-04-18T02:13:52.299Z,6.68
2023-04-18T02:16:37.101Z,6.47
2023-04-18T02:19:22.362Z,6.70
2023-04-18T02:22:07.325Z,6.80
2023-04-18T02:24:52.404Z,6.90
2023-04-18T02:27:37.100Z,6.55
2023-04-18T02:30:23.066Z,6.60
2023-04-18T02:33:08.201Z,6.53
2023-04-18T02:35:53.153Z,6.33
2023-04-18T02:38:38.094Z,6.38
2023-04-18T02:41:23.647Z,6.32
2023-04-18T02:44:08.773Z,6.32
2023-04-18T02:46:53.586Z,6.15
2023-04-18T02:49:38.283Z,6.50
2023-04-18T02:52:23.270Z,6.28
2023-04-18T02:55:08.414Z,6.22
2023-04-18T02:57:53.487Z,6.40
2023-04-18T03:00:38.211Z,6.13
2023-04-18T03:03:23.406Z,6.60
2023-04-18T03:06:08.173Z,6.47
2023-04-18T03:08:54.684Z,6.70
2023-04-18T03:11:39.514Z,6.18
2023-04-18T03:14:24.572Z,6.45
2023-04-18T03:17:09.394Z,6.23
2023-04-18T03:19:54.685Z,6.30
2023-04-18T03:22:39.829Z,6.70
2023-04-18T03:25:24.650Z,6.22
2023-04-18T03:28:09.625Z,6.13
2023-04-18T03:30:54.758Z,6.00
2023-04-18T03:33:39.400Z,5.82
2023-04-18T03:36:25.339Z,5.90
2023-04-18T03:39:10.370Z,6.18
2023-04-18T03:41:55.591Z,6.70
2023-04-18T03:44:40.343Z,6.13
2023-04-18T03:47:25.528Z,6.10
2023-04-18T03:50:10.503Z,6.68
2023-04-18T03:52:55.647Z,6.57
2023-04-18T03:55:41.636Z,6.75
2023-04-18T03:58:26.630Z,6.17
2023-04-18T04:01:12.704Z,6.57
2023-04-18T04:03:57.575Z,6.38
2023-04-18T04:06:43.072Z,6.82
2023-04-18T04:09:27.942Z,6.60
2023-04-18T04:12:12.799Z,7.80
2023-04-18T04:14:57.986Z,7.25
2023-04-18T04:17:43.222Z,7.90
2023-04-18T04:20:28.500Z,7.68
2023-04-18T04:23:13.578Z,7.25
2023-04-18T04:25:59.172Z,7.23
2023-04-18T04:28:46.404Z,7.15
2023-04-18T04:31:31.739Z,7.40
2023-04-18T04:34:16.832Z,7.50
2023-04-18T04:37:02.495Z,7.57
2023-04-18T04:39:47.458Z,7.83
2023-04-18T04:42:32.189Z,7.10
2023-04-18T04:45:17.443Z,7.32
2023-04-18T04:48:02.328Z,7.50
2023-04-18T04:50:58.154Z,7.35
2023-04-18T04:53:42.912Z,7.33
2023-04-18T04:56:28.120Z,7.97
2023-04-18T04:59:13.252Z,7.65
2023-04-18T05:01:58.502Z,6.80
2023-04-18T05:04:43.785Z,7.70
2023-04-18T05:07:28.685Z,7.60
2023-04-18T05:10:13.623Z,7.95
2023-04-18T05:12:58.576Z,8.07
2023-04-18T05:15:44.053Z,7.28
2023-04-18T05:18:29.478Z,7.05
2023-04-18T05:21:14.798Z,6.87
2023-04-18T05:23:59.572Z,5.03
2023-04-18T05:26:44.378Z,6.90
2023-04-18T05:29:29.682Z,6.47
2023-04-18T05:32:15.221Z,7.25
2023-04-18T05:34:59.977Z,3.23
2023-04-18T05:37:44.728Z,6.47
2023-04-18T05:40:30.082Z,6.40
2023-04-18T05:43:15.563Z,7.13
2023-04-18T05:46:00.730Z,6.63
2023-04-18T05:48:45.704Z,6.47
2023-04-18T05:51:31.193Z,6.78
2023-04-18T05:54:16.885Z,6.63
2023-04-18T05:57:04.256Z,6.65
2023-04-18T05:59:49.362Z,7.15
2023-04-18T06:02:34.272Z,5.97
2023-04-18T06:05:19.265Z,7.15
2023-04-18T06:08:04.570Z,6.72
2023-04-18T06:10:49.625Z,7.05
2023-04-18T06:13:34.446Z,6.68
2023-04-18T06:16:19.692Z,6.97
2023-04-18T06:19:05.105Z,7.13
2023-04-18T06:21:49.903Z,5.82
2023-04-18T06:24:34.676Z,6.88
2023-04-18T06:27:30.526Z,6.70
2023-04-18T06:30:16.223Z,7.43
2023-04-18T06:33:01.609Z,6.60
2023-04-18T06:35:46.467Z,6.55
2023-04-18T06:38:32.242Z,7.00
2023-04-18T06:41:16.899Z,6.90
2023-04-18T06:44:03.481Z,7.03
2023-04-18T06:46:49.579Z,7.07
2023-04-18T06:49:34.732Z,7.28
2023-04-18T06:52:19.487Z,7.93
2023-04-18T06:55:04.480Z,6.88
2023-04-18T06:57:49.280Z,6.97
2023-04-18T07:00:34.230Z,6.05
2023-04-18T07:03:19.132Z,5.25
2023-04-18T07:06:05.689Z,6.45
2023-04-18T07:08:51.298Z,5.15
2023-04-18T07:11:39.025Z,6.27
2023-04-18T07:14:24.850Z,6.03
2023-04-18T07:17:09.667Z,3.28
2023-04-18T07:19:54.850Z,5.72
2023-04-18T07:22:41.064Z,4.18
2023-04-18T07:25:25.894Z,5.73
2023-04-18T07:28:10.811Z,4.60
2023-04-18T07:30:56.815Z,2.90
2023-04-18T07:33:43.258Z,1.58
2023-04-18T07:36:28.289Z,4.18
2023-04-18T07:39:13.161Z,4.40
2023-04-18T07:41:58.724Z,3.58
2023-04-18T07:44:43.796Z,5.22
2023-04-18T07:47:30.378Z,3.42
2023-04-18T07:50:16.184Z,4.43
2023-04-18T07:53:01.256Z,4.80
2023-04-18T07:55:46.496Z,3.35
2023-04-18T07:58:31.392Z,3.20
2023-04-18T08:01:18.413Z,2.90
2023-04-18T08:04:03.460Z,2.53
2023-04-18T08:06:48.234Z,2.60
2023-04-18T08:09:34.119Z,3.10
2023-04-18T08:12:19.000Z,3.42
2023-04-18T08:15:04.799Z,2.92
2023-04-18T08:17:51.370Z,2.60
2023-04-18T08:20:37.029Z,3.67
2023-04-18T08:23:21.662Z,3.95
2023-04-18T08:26:06.648Z,3.03
2023-04-18T08:28:51.570Z,4.53
2023-04-18T08:31:36.641Z,3.55
2023-04-18T08:34:21.929Z,4.13
2023-04-18T08:37:07.181Z,2.80
2023-04-18T08:39:52.177Z,3.80
2023-04-18T08:42:38.486Z,4.30
2023-04-18T08:45:24.159Z,4.00
2023-04-18T08:48:13.887Z,2.43
2023-04-18T08:50:59.532Z,4.10
2023-04-18T08:53:45.044Z,3.75
2023-04-18T08:56:30.749Z,3.65
2023-04-18T08:59:18.302Z,4.75
2023-04-18T09:02:06.378Z,3.70
2023-04-18T09:04:55.644Z,4.00
2023-04-18T09:07:41.482Z,3.72
2023-04-18T09:10:34.612Z,3.13
2023-04-18T09:13:38.312Z,3.00
2023-04-18T09:16:23.491Z,3.73
2023-04-18T09:19:18.435Z,2.78
2023-04-18T09:22:04.673Z,3.78
2023-04-18T09:24:53.451Z,4.18
2023-04-18T09:27:38.169Z,3.42
2023-04-18T09:30:32.772Z,3.30
2023-04-18T09:33:17.780Z,4.00
2023-04-18T09:36:20.596Z,2.33
2023-04-18T09:39:05.284Z,2.55
2023-04-18T09:41:59.836Z,4.00
2023-04-18T09:45:06.730Z,2.90
2023-04-18T09:47:53.294Z,3.53
2023-04-18T09:50:41.168Z,3.90
2023-04-18T09:53:26.969Z,3.75
2023-04-18T09:56:20.892Z,4.13
2023-04-18T09:59:09.264Z,3.90
2023-04-18T10:01:55.900Z,3.47
2023-04-18T10:04:42.184Z,4.20
2023-04-18T10:07:27.542Z,3.90
2023-04-18T10:10:13.366Z,4.03
2023-04-18T10:12:59.961Z,3.97
2023-04-18T10:15:45.459Z,4.32
2023-04-18T10:18:30.790Z,3.70
2023-04-18T10:21:15.511Z,4.40
2023-04-18T10:24:00.589Z,4.25
2023-04-18T10:26:47.003Z,4.40
2023-04-18T10:29:53.889Z,4.60
2023-04-18T10:32:39.333Z,4.38
2023-04-18T10:35:24.219Z,4.40
2023-04-18T10:38:16.945Z,3.63
2023-04-18T10:41:19.215Z,4.30
2023-04-18T10:44:10.062Z,4.43
2023-04-18T10:46:57.853Z,4.00
2023-04-18T10:49:53.242Z,3.85
2023-04-18T10:52:38.919Z,3.20
2023-04-18T10:55:28.519Z,4.23
2023-04-18T10:58:15.281Z,4.55
2023-04-18T11:01:03.227Z,4.53
2023-04-18T11:03:48.186Z,4.10
2023-04-18T11:06:32.878Z,3.97
2023-04-18T11:09:18.235Z,4.60
2023-04-18T11:12:09.026Z,3.25
2023-04-18T11:14:54.256Z,3.90
2023-04-18T11:17:40.098Z,4.20
2023-04-18T11:20:25.450Z,4.30
2023-04-18T11:23:20.071Z,4.50
2023-04-18T11:26:07.363Z,4.22
2023-04-18T11:28:56.642Z,4.40
2023-04-18T11:31:41.715Z,3.78
2023-04-18T11:34:31.235Z,4.28
2023-04-18T11:37:16.262Z,3.70
2023-04-18T11:40:02.485Z,3.47
2023-04-18T11:42:47.282Z,4.05
2023-04-18T11:45:32.885Z,4.20
2023-04-18T11:48:17.735Z,4.38
2023-04-18T11:51:02.551Z,3.60
2023-04-18T11:53:47.572Z,3.60
2023-04-18T11:56:34.633Z,3.88
2023-04-18T11:59:20.930Z,4.05
2023-04-18T12:02:16.413Z,3.75
2023-04-18T12:05:02.388Z,4.23
2023-04-18T12:07:47.757Z,3.95
2023-04-18T12:10:32.998Z,3.30
2023-04-18T12:13:24.064Z,4.43
2023-04-18T12:16:08.848Z,4.00
2023-04-18T12:19:00.228Z,3.70
2023-04-18T12:22:01.288Z,3.80
2023-04-18T12:24:46.496Z,4.53
2023-04-18T12:27:57.987Z,3.50
2023-04-18T12:30:42.992Z,3.35
2023-04-18T12:33:27.904Z,3.17
2023-04-18T12:36:12.846Z,4.30
2023-04-18T12:38:57.942Z,3.40
2023-04-18T12:41:43.571Z,3.40
2023-04-18T12:44:28.482Z,4.28
2023-04-18T12:47:13.284Z,3.73
2023-04-18T12:49:58.255Z,4.07
2023-04-18T12:52:43.273Z,3.90
2023-04-18T12:55:29.102Z,3.60
2023-04-18T12:58:18.338Z,3.50
2023-04-18T13:01:04.618Z,3.20
2023-04-18T13:03:59.948Z,2.88
2023-04-18T13:06:53.491Z,3.90
2023-04-18T13:09:38.462Z,3.80
2023-04-18T13:12:23.403Z,2.83
2023-04-18T13:15:09.323Z,3.60
2023-04-18T13:17:56.260Z,3.20
2023-04-18T13:20:41.326Z,3.17
2023-04-18T13:23:26.438Z,3.50
2023-04-18T13:26:11.099Z,2.88
2023-04-18T13:28:56.223Z,3.87
2023-04-18T13:31:41.003Z,3.58
2023-04-18T13:34:25.967Z,3.10
2023-04-18T13:37:10.897Z,2.92
2023-04-18T13:39:55.866Z,3.55
2023-04-18T13:42:40.970Z,3.13
2023-04-18T13:45:25.733Z,3.03
2023-04-18T13:48:10.696Z,3.50
2023-04-18T13:50:55.582Z,3.40
2023-04-18T13:53:40.404Z,3.50
2023-04-18T13:56:25.843Z,3.87
2023-04-18T13:59:10.607Z,3.60
2023-04-18T14:01:56.191Z,2.15
2023-04-18T14:04:41.288Z,3.63
2023-04-18T14:07:26.645Z,3.40
2023-04-18T14:10:11.552Z,3.77
2023-04-18T14:12:57.441Z,5.00
2023-04-18T14:15:42.456Z,2.70
2023-04-18T14:18:28.386Z,2.00
2023-04-18T14:21:13.598Z,3.90
2023-04-18T14:23:58.684Z,3.47
2023-04-18T14:26:43.870Z,4.47
2023-04-18T14:29:28.551Z,4.25
2023-04-18T14:32:13.417Z,4.00
2023-04-18T14:34:59.112Z,3.03
2023-04-18T14:37:43.870Z,3.50
2023-04-18T14:40:30.827Z,4.50
2023-04-18T14:43:16.977Z,3.15
2023-04-18T14:46:01.826Z,3.72
2023-04-18T14:48:47.207Z,3.63
2023-04-18T14:51:32.174Z,3.90
2023-04-18T14:54:17.352Z,4.00
2023-04-18T14:57:02.256Z,3.88
2023-04-18T14:59:47.223Z,4.35
2023-04-18T15:02:32.442Z,3.58
2023-04-18T15:05:20.312Z,4.30
2023-04-18T15:08:06.703Z,4.50
2023-04-18T15:10:51.499Z,3.97
2023-04-18T15:13:36.418Z,3.80
2023-04-18T15:16:21.491Z,2.78
2023-04-18T15:19:06.429Z,2.80
2023-04-18T15:21:52.638Z,3.90
2023-04-18T15:24:37.361Z,3.83
2023-04-18T15:27:22.410Z,2.70
2023-04-18T15:30:08.129Z,4.32
2023-04-18T15:32:53.895Z,4.33
2023-04-18T15:35:38.667Z,3.97
2023-04-18T15:38:23.606Z,3.70
2023-04-18T15:41:08.510Z,4.05
2023-04-18T15:43:53.631Z,4.20
2023-04-18T15:46:38.763Z,3.33
2023-04-18T15:49:23.532Z,3.83
2023-04-18T15:52:08.716Z,1.98
2023-04-18T15:54:54.201Z,3.08
2023-04-18T15:57:39.881Z,4.30
2023-04-18T16:00:24.759Z,2.27
2023-04-18T16:03:10.177Z,3.40
2023-04-18T16:05:55.292Z,2.63
2023-04-18T16:08:39.978Z,4.13
2023-04-18T16:11:28.769Z,2.88
2023-04-18T16:14:14.123Z,3.70
2023-04-18T16:16:59.565Z,3.10
2023-04-18T16:19:44.393Z,3.75
2023-04-18T16:22:29.304Z,4.10
2023-04-18T16:25:14.587Z,4.03
2023-04-18T16:27:59.616Z,3.90
2023-04-18T16:30:45.561Z,3.60
2023-04-18T16:33:30.756Z,3.45
2023-04-18T16:36:15.638Z,3.70
2023-04-18T16:39:00.879Z,4.07
2023-04-18T16:41:45.654Z,3.87
2023-04-18T16:44:30.867Z,3.45
2023-04-18T16:47:15.825Z,4.25
2023-04-18T16:50:00.984Z,3.90
2023-04-18T16:52:45.809Z,3.45
2023-04-18T16:55:31.004Z,3.63
2023-04-18T16:58:16.455Z,3.78
2023-04-18T17:01:01.815Z,3.60
2023-04-18T17:03:46.867Z,3.25
2023-04-18T17:06:32.480Z,3.95
2023-04-18T17:09:19.621Z,3.27
2023-04-18T17:12:04.967Z,3.97
2023-04-18T17:14:50.051Z,3.97
2023-04-18T17:17:35.463Z,3.40
2023-04-18T17:20:21.189Z,3.10
2023-04-18T17:23:05.973Z,3.13
2023-04-18T17:25:51.291Z,2.90
2023-04-18T17:28:36.362Z,3.50
2023-04-18T17:31:21.412Z,3.03
2023-04-18T17:34:06.323Z,3.38
2023-04-18T17:36:51.549Z,3.00
2023-04-18T17:39:36.351Z,3.08
2023-04-18T17:42:21.320Z,3.03
2023-04-18T17:45:08.100Z,3.10
2023-04-18T17:47:53.657Z,2.88
2023-04-18T17:50:39.389Z,1.97
2023-04-18T17:53:24.297Z,1.80
2023-04-18T17:56:10.031Z,2.80
2023-04-18T17:58:56.803Z,2.42
2023-04-18T18:01:41.973Z,2.90
2023-04-18T18:04:27.672Z,2.70
2023-04-18T18:07:12.884Z,2.05
2023-04-18T18:09:57.868Z,2.83
2023-04-18T18:12:42.674Z,2.95
2023-04-18T18:15:28.301Z,3.33
2023-04-18T18:18:12.981Z,3.03
2023-04-18T18:20:58.616Z,3.42
2023-04-18T18:23:43.871Z,2.15
2023-04-18T18:26:29.007Z,2.20
2023-04-18T18:29:14.091Z,3.40
2023-04-18T18:31:59.954Z,3.10
2023-04-18T18:34:44.865Z,3.45
2023-04-18T18:37:29.922Z,3.35
2023-04-18T18:40:15.133Z,3.30
2023-04-18T18:43:00.589Z,3.67
2023-04-18T18:45:45.605Z,3.60
2023-04-18T18:48:32.660Z,3.58
2023-04-18T18:51:18.971Z,3.78
2023-04-18T18:54:04.077Z,2.70
2023-04-18T18:56:49.215Z,2.80
2023-04-18T18:59:33.993Z,3.40
2023-04-18T19:02:19.005Z,3.08
2023-04-18T19:05:06.259Z,3.50
2023-04-18T19:07:51.488Z,3.70
2023-04-18T19:10:36.762Z,2.80
2023-04-18T19:13:23.522Z,3.53
2023-04-18T19:16:08.269Z,1.80
2023-04-18T19:18:53.489Z,3.90
2023-04-18T19:21:39.653Z,3.92
2023-04-18T19:24:24.876Z,3.65
2023-04-18T19:27:09.819Z,3.87
2023-04-18T19:29:54.827Z,3.58
2023-04-18T19:32:39.835Z,3.75
2023-04-18T19:35:24.481Z,3.85
2023-04-18T19:38:09.244Z,4.00
2023-04-18T19:40:54.080Z,4.13
2023-04-18T19:43:40.209Z,4.10
2023-04-18T19:46:25.143Z,3.88
2023-04-18T19:49:10.137Z,3.20
2023-04-18T19:51:55.372Z,3.03
2023-04-18T19:54:40.135Z,3.73
2023-04-18T19:57:26.233Z,3.15
2023-04-18T20:00:12.891Z,2.25
2023-04-18T20:02:58.889Z,3.03
2023-04-18T20:05:44.153Z,2.90
2023-04-18T20:08:29.313Z,3.13
2023-04-18T20:11:14.384Z,2.95
2023-04-18T20:13:59.526Z,2.92
2023-04-18T20:16:45.734Z,3.03
2023-04-18T20:19:31.220Z,1.60
2023-04-18T20:22:16.570Z,2.90
2023-04-18T20:25:01.709Z,3.08
2023-04-18T20:27:46.622Z,2.67
2023-04-18T20:30:32.217Z,2.78
2023-04-18T20:33:16.877Z,3.10
2023-04-18T20:36:01.980Z,2.97
2023-04-18T20:38:46.993Z,3.13
2023-04-18T20:41:34.526Z,3.05
2023-04-18T20:44:20.831Z,3.20
2023-04-18T20:47:06.245Z,3.15
2023-04-18T20:49:51.414Z,3.20
2023-04-18T20:52:36.432Z,3.45
2023-04-18T20:55:21.444Z,3.33
2023-04-18T20:58:06.286Z,3.60
2023-04-18T21:00:51.972Z,3.47
2023-04-18T21:03:36.891Z,3.37
2023-04-18T21:06:22.270Z,2.90
2023-04-18T21:09:07.390Z,3.13
2023-04-18T21:11:52.341Z,3.25
2023-04-18T21:14:37.149Z,4.22
2023-04-18T21:17:22.466Z,3.60
2023-04-18T21:20:08.929Z,3.75
2023-04-18T21:22:53.691Z,2.90
2023-04-18T21:25:38.793Z,3.70
2023-04-18T21:28:23.492Z,4.10
2023-04-18T21:31:08.450Z,3.70
2023-04-18T21:33:55.009Z,2.95
2023-04-18T21:36:40.528Z,3.90
2023-04-18T21:39:27.215Z,4.40
2023-04-18T21:42:11.916Z,2.13
2023-04-18T21:44:57.051Z,4.00
2023-04-18T21:47:41.838Z,4.13
2023-04-18T21:50:27.077Z,4.20
2023-04-18T21:53:11.736Z,4.05
2023-04-18T21:55:56.969Z,2.72
2023-04-18T21:58:42.154Z,4.37
2023-04-18T22:01:26.963Z,2.97
2023-04-18T22:04:12.266Z,2.33
2023-04-18T22:06:57.440Z,4.18
2023-04-18T22:09:42.133Z,4.30
2023-04-18T22:12:27.251Z,4.27
2023-04-18T22:15:12.225Z,3.53
2023-04-18T22:17:58.872Z,4.50
2023-04-18T22:20:44.604Z,3.53
2023-04-18T22:23:30.441Z,4.40
2023-04-18T22:26:15.254Z,4.33
2023-04-18T22:29:00.382Z,4.43
2023-04-18T22:31:45.614Z,4.20
2023-04-18T22:34:30.394Z,3.67
2023-04-18T22:37:15.792Z,4.55
2023-04-18T22:40:01.345Z,3.30
2023-04-18T22:42:46.208Z,4.00
2023-04-18T22:45:31.262Z,4.57
2023-04-18T22:48:16.963Z,4.20
2023-04-18T22:51:02.432Z,3.80
2023-04-18T22:53:47.492Z,3.60
2023-04-18T22:56:32.576Z,3.40
2023-04-18T22:59:17.664Z,3.42
2023-04-18T23:02:02.780Z,2.90
2023-04-18T23:04:49.143Z,2.67
2023-04-18T23:07:33.975Z,3.13
2023-04-18T23:10:21.284Z,2.03
2023-04-18T23:13:06.316Z,2.33
2023-04-18T23:15:51.185Z,3.08
2023-04-18T23:18:36.081Z,2.70
2023-04-18T23:21:21.133Z,3.00
2023-04-18T23:24:07.096Z,3.20
2023-04-18T23:26:52.119Z,2.78
2023-04-18T23:29:38.918Z,2.47
2023-04-18T23:32:23.991Z,2.22
2023-04-18T23:35:10.358Z,2.10
2023-04-18T23:37:56.929Z,2.60
2023-04-18T23:40:41.615Z,1.90
2023-04-18T23:43:26.699Z,2.05
2023-04-18T23:46:12.899Z,2.40
2023-04-18T23:48:57.946Z,2.50
2023-04-18T23:51:42.916Z,2.35
2023-04-18T23:54:27.897Z,1.58
2023-04-18T23:57:12.597Z,2.08
2023-04-18T23:59:57.669Z,1.65
